createdAt,value
2022-11-23T00:02:36.442Z,0.60
2022-11-23T00:05:23.615Z,0.73
2022-11-23T00:08:10.707Z,1.00
2022-11-23T00:11:01.405Z,0.60
2022-11-23T00:13:48.261Z,0.50
2022-11-23T00:16:35.285Z,0.70
2022-11-23T00:19:22.483Z,0.90
2022-11-23T00:22:09.389Z,0.97
2022-11-23T00:24:56.366Z,0.70
2022-11-23T00:27:44.730Z,0.80
2022-11-23T00:30:33.431Z,0.67
2022-11-23T00:33:20.352Z,1.03
2022-11-23T00:36:11.866Z,0.43
2022-11-23T00:38:58.914Z,0.60
2022-11-23T00:41:46.498Z,1.10
2022-11-23T00:44:34.454Z,0.97
2022-11-23T00:47:23.307Z,0.93
2022-11-23T00:50:10.878Z,0.80
2022-11-23T00:53:00.136Z,0.80
2022-11-23T00:55:54.166Z,0.70
2022-11-23T00:58:44.361Z,0.80
2022-11-23T01:01:36.962Z,0.80
2022-11-23T01:04:23.602Z,0.67
2022-11-23T01:07:10.558Z,0.90
2022-11-23T01:09:58.100Z,0.80
2022-11-23T01:12:45.901Z,0.97
2022-11-23T01:15:34.341Z,0.80
2022-11-23T01:18:23.089Z,0.50
2022-11-23T01:21:10.725Z,0.70
2022-11-23T01:23:57.959Z,1.13
2022-11-23T01:26:45.783Z,0.70
2022-11-23T01:29:33.290Z,1.30
2022-11-23T01:32:20.755Z,0.93
2022-11-23T01:35:10.383Z,0.70
2022-11-23T01:37:57.799Z,0.90
2022-11-23T01:40:48.310Z,0.80
2022-11-23T01:43:35.411Z,1.10
2022-11-23T01:46:22.890Z,1.13
2022-11-23T01:49:09.708Z,1.03
2022-11-23T01:52:03.208Z,1.03
2022-11-23T01:54:54.522Z,0.77
2022-11-23T01:57:45.314Z,1.00
2022-11-23T02:00:32.471Z,1.00
2022-11-23T02:03:19.839Z,0.73
2022-11-23T02:06:14.793Z,0.97
2022-11-23T02:09:04.118Z,0.90
2022-11-23T02:11:51.056Z,1.00
2022-11-23T02:14:38.318Z,0.67
2022-11-23T02:17:25.158Z,0.80
2022-11-23T02:20:16.461Z,1.10
2022-11-23T02:23:21.449Z,1.00
2022-11-23T02:26:17.307Z,0.77
2022-11-23T02:29:11.168Z,0.97
2022-11-23T02:31:58.010Z,0.97
2022-11-23T02:34:46.862Z,0.73
2022-11-23T02:37:33.980Z,0.77
2022-11-23T02:40:29.054Z,0.80
2022-11-23T02:43:16.980Z,0.60
2022-11-23T02:46:05.626Z,0.90
2022-11-23T02:48:52.388Z,0.90
2022-11-23T02:51:39.392Z,1.13
2022-11-23T02:54:26.290Z,0.80
2022-11-23T02:57:13.258Z,1.00
2022-11-23T03:00:01.798Z,1.17
2022-11-23T03:02:48.903Z,0.70
2022-11-23T03:05:38.684Z,1.03
2022-11-23T03:08:25.822Z,0.73
2022-11-23T03:11:14.804Z,0.70
2022-11-23T03:14:02.084Z,0.80
2022-11-23T03:16:50.374Z,1.07
2022-11-23T03:19:42.226Z,1.00
2022-11-23T03:22:29.285Z,0.87
2022-11-23T03:25:16.817Z,0.83
2022-11-23T03:28:03.464Z,0.93
2022-11-23T03:30:50.567Z,0.83
2022-11-23T03:33:42.762Z,0.90
2022-11-23T03:36:29.655Z,0.90
2022-11-23T03:39:16.140Z,0.63
2022-11-23T03:42:03.154Z,0.70
2022-11-23T03:44:50.215Z,1.00
2022-11-23T03:47:39.838Z,0.80
2022-11-23T03:50:29.673Z,0.67
2022-11-23T03:53:16.712Z,0.70
2022-11-23T03:56:03.833Z,1.07
2022-11-23T03:58:50.619Z,0.80
2022-11-23T04:01:38.817Z,0.70
2022-11-23T04:04:25.582Z,0.63
2022-11-23T04:07:14.081Z,0.60
2022-11-23T04:10:00.686Z,1.27
2022-11-23T04:12:52.920Z,1.00
2022-11-23T04:15:40.856Z,0.87
2022-11-23T04:18:27.759Z,1.10
2022-11-23T04:21:14.596Z,1.10
2022-11-23T04:24:03.269Z,1.07
2022-11-23T04:26:50.374Z,1.20
2022-11-23T04:29:37.313Z,1.10
2022-11-23T04:32:24.361Z,1.40
2022-11-23T04:35:11.345Z,0.90
2022-11-23T04:37:58.210Z,1.10
2022-11-23T04:40:49.742Z,1.10
2022-11-23T04:43:36.743Z,0.80
2022-11-23T04:46:24.497Z,1.00
2022-11-23T04:49:14.774Z,0.90
2022-11-23T04:52:04.300Z,0.80
2022-11-23T04:54:50.882Z,0.80
2022-11-23T04:57:40.285Z,1.70
2022-11-23T05:00:33.232Z,1.00
2022-11-23T05:03:20.398Z,0.90
2022-11-23T05:06:08.120Z,1.30
2022-11-23T05:08:56.889Z,0.80
2022-11-23T05:11:45.015Z,0.90
2022-11-23T05:14:33.666Z,1.10
2022-11-23T05:17:23.645Z,0.90
2022-11-23T05:20:32.840Z,1.00
2022-11-23T05:23:28.077Z,0.87
2022-11-23T05:26:24.940Z,0.97
2022-11-23T05:29:11.261Z,0.80
2022-11-23T05:31:59.232Z,0.97
2022-11-23T05:34:46.031Z,1.03
2022-11-23T05:37:34.337Z,0.40
2022-11-23T05:40:20.680Z,1.10
2022-11-23T05:43:07.139Z,0.70
2022-11-23T05:45:53.731Z,0.90
2022-11-23T05:48:41.684Z,0.83
2022-11-23T05:52:03.773Z,1.30
2022-11-23T05:54:50.599Z,1.10
2022-11-23T05:57:37.397Z,0.90
2022-11-23T06:00:24.294Z,0.77
2022-11-23T06:03:18.409Z,0.83
2022-11-23T06:06:09.959Z,0.80
2022-11-23T06:08:58.234Z,1.20
2022-11-23T06:11:59.196Z,0.67
2022-11-23T06:14:46.198Z,0.80
2022-11-23T06:17:33.209Z,0.70
2022-11-23T06:20:22.142Z,1.17
2022-11-23T06:23:10.960Z,1.07
2022-11-23T06:26:04.576Z,1.27
2022-11-23T06:28:51.690Z,0.80
2022-11-23T06:31:41.147Z,0.70
2022-11-23T06:34:27.727Z,1.10
2022-11-23T06:37:15.400Z,0.90
2022-11-23T06:40:03.697Z,1.10
2022-11-23T06:42:50.361Z,0.90
2022-11-23T06:45:37.567Z,1.23
2022-11-23T06:48:25.164Z,1.00
2022-11-23T06:51:12.082Z,0.70
2022-11-23T06:53:59.189Z,0.80
2022-11-23T06:56:47.647Z,1.30
2022-11-23T06:59:34.685Z,0.90
2022-11-23T07:02:21.743Z,1.30
2022-11-23T07:05:12.462Z,1.30
2022-11-23T07:08:05.034Z,1.30
2022-11-23T07:10:52.942Z,0.97
2022-11-23T07:13:41.494Z,0.87
2022-11-23T07:16:28.282Z,1.10
2022-11-23T07:19:21.038Z,0.80
2022-11-23T07:22:09.527Z,1.10
2022-11-23T07:24:56.409Z,0.67
2022-11-23T07:27:44.823Z,1.30
2022-11-23T07:30:36.866Z,1.03
2022-11-23T07:33:26.252Z,1.00
2022-11-23T07:36:13.136Z,0.73
2022-11-23T07:39:02.017Z,0.80
2022-11-23T07:41:51.469Z,1.07
2022-11-23T07:44:38.636Z,0.83
2022-11-23T07:47:26.938Z,1.03
2022-11-23T07:50:14.732Z,1.13
2022-11-23T07:53:04.070Z,1.10
2022-11-23T07:55:50.922Z,0.80
2022-11-23T07:58:39.501Z,1.10
2022-11-23T08:01:27.686Z,0.97
2022-11-23T08:04:15.902Z,0.87
2022-11-23T08:07:04.696Z,0.90
2022-11-23T08:09:57.145Z,1.10
2022-11-23T08:12:43.928Z,1.30
2022-11-23T08:15:31.305Z,1.23
2022-11-23T08:18:21.094Z,0.97
2022-11-23T08:21:09.797Z,0.93
2022-11-23T08:23:56.511Z,0.80
2022-11-23T08:26:44.566Z,1.20
2022-11-23T08:29:32.067Z,0.73
2022-11-23T08:32:19.384Z,0.90
2022-11-23T08:35:07.195Z,0.77
2022-11-23T08:37:55.539Z,0.87
2022-11-23T08:40:43.644Z,1.10
2022-11-23T08:43:31.028Z,0.90
2022-11-23T08:46:21.058Z,0.90
2022-11-23T08:49:08.698Z,0.80
2022-11-23T08:51:55.744Z,0.73
2022-11-23T08:54:53.037Z,0.63
2022-11-23T08:57:40.138Z,0.70
2022-11-23T09:00:28.255Z,0.90
2022-11-23T09:03:14.966Z,0.87
2022-11-23T09:06:01.964Z,1.03
2022-11-23T09:08:48.698Z,0.97
2022-11-23T09:11:36.905Z,0.60
2022-11-23T09:14:23.904Z,1.00
2022-11-23T09:17:10.864Z,0.63
2022-11-23T09:19:57.911Z,1.00
2022-11-23T09:22:47.307Z,0.90
2022-11-23T09:25:34.044Z,0.83
2022-11-23T09:28:24.401Z,0.80
2022-11-23T09:31:11.319Z,1.10
2022-11-23T09:33:58.120Z,0.97
2022-11-23T09:36:47.288Z,1.00
2022-11-23T09:39:42.238Z,0.67
2022-11-23T09:42:50.792Z,1.00
2022-11-23T09:45:48.327Z,1.07
2022-11-23T09:49:10.578Z,1.10
2022-11-23T09:51:58.740Z,1.40
2022-11-23T09:54:49.577Z,1.17
2022-11-23T09:57:39.920Z,1.20
2022-11-23T10:00:39.833Z,0.97
2022-11-23T10:03:26.792Z,1.20
2022-11-23T10:06:21.120Z,0.80
2022-11-23T10:09:32.519Z,1.17
2022-11-23T10:12:40.282Z,1.00
2022-11-23T10:15:33.107Z,0.73
2022-11-23T10:18:37.708Z,1.27
2022-11-23T10:21:38.348Z,1.05
2022-11-23T10:24:36.913Z,1.08
2022-11-23T10:27:33.224Z,0.77
2022-11-23T10:30:21.550Z,1.25
2022-11-23T10:33:22.771Z,0.90
2022-11-23T10:36:13.630Z,1.08
2022-11-23T10:39:02.877Z,1.25
2022-11-23T10:41:50.803Z,1.50
2022-11-23T10:44:39.207Z,1.23
2022-11-23T10:47:42.697Z,1.35
2022-11-23T10:50:33.752Z,1.10
2022-11-23T10:53:28.211Z,0.98
2022-11-23T10:56:15.554Z,1.42
2022-11-23T10:59:02.633Z,0.90
2022-11-23T11:02:14.764Z,1.00
2022-11-23T11:06:07.009Z,0.95
2022-11-23T11:08:53.552Z,0.88
2022-11-23T11:11:46.909Z,0.90
2022-11-23T11:14:42.705Z,0.77
2022-11-23T11:17:33.656Z,1.08
2022-11-23T11:20:32.848Z,1.10
2022-11-23T11:23:23.461Z,0.80
2022-11-23T11:26:23.738Z,1.60
2022-11-23T11:29:38.749Z,0.95
2022-11-23T11:32:35.418Z,0.90
2022-11-23T11:35:28.305Z,0.93
2022-11-23T11:38:23.890Z,0.77
2022-11-23T11:41:16.679Z,1.00
2022-11-23T11:44:17.116Z,0.95
2022-11-23T11:47:17.101Z,0.90
2022-11-23T11:50:20.403Z,0.80
2022-11-23T11:53:21.440Z,1.00
2022-11-23T11:56:26.465Z,0.95
2022-11-23T11:59:23.454Z,1.33
2022-11-23T12:02:24.731Z,1.33
2022-11-23T12:05:21.650Z,1.10
2022-11-23T12:08:17.182Z,1.30
2022-11-23T12:11:07.151Z,1.52
2022-11-23T12:14:02.593Z,0.70
2022-11-23T12:17:30.858Z,1.17
2022-11-23T12:20:20.604Z,1.10
2022-11-23T12:23:22.676Z,1.27
2022-11-23T12:26:25.279Z,1.17
2022-11-23T12:29:38.618Z,0.68
2022-11-23T12:32:43.368Z,1.25
2022-11-23T12:35:53.894Z,0.95
2022-11-23T12:38:55.324Z,1.33
2022-11-23T12:41:55.099Z,0.95
2022-11-23T12:45:03.300Z,1.10
2022-11-23T12:48:05.356Z,0.90
2022-11-23T12:51:04.281Z,1.08
2022-11-23T12:54:14.351Z,0.63
2022-11-23T12:57:14.975Z,1.23
2022-11-23T13:00:08.071Z,0.88
2022-11-23T13:03:46.946Z,0.90
2022-11-23T13:07:31.473Z,1.00
2022-11-23T13:10:49.069Z,1.13
2022-11-23T13:13:59.302Z,1.15
2022-11-23T13:17:23.985Z,0.75
2022-11-23T13:20:31.579Z,0.55
2022-11-23T13:23:21.598Z,0.75
2022-11-23T13:26:15.545Z,1.13
2022-11-23T13:29:58.485Z,1.30
2022-11-23T13:32:58.839Z,1.48
2022-11-23T13:36:07.677Z,1.10
2022-11-23T13:39:00.645Z,1.63
2022-11-23T13:42:02.562Z,1.33
2022-11-23T13:44:49.620Z,1.00
2022-11-23T13:47:40.776Z,1.20
2022-11-23T13:50:29.579Z,0.90
2022-11-23T13:53:24.608Z,1.30
2022-11-23T13:56:31.842Z,1.27
2022-11-23T13:59:31.356Z,1.42
2022-11-23T14:02:29.826Z,1.08
2022-11-23T14:06:15.010Z,0.25
2022-11-23T14:09:12.448Z,1.75
2022-11-23T14:12:15.399Z,1.38
2022-11-23T14:15:12.742Z,1.20
2022-11-23T14:18:26.217Z,1.42
2022-11-23T14:21:24.353Z,1.13
2022-11-23T14:24:45.108Z,1.25
2022-11-23T14:27:53.036Z,1.30
2022-11-23T14:31:03.612Z,1.77
2022-11-23T14:34:00.178Z,1.13
2022-11-23T14:36:57.795Z,1.30
2022-11-23T14:40:13.294Z,1.40
2022-11-23T14:43:03.721Z,1.27
2022-11-23T14:45:50.510Z,1.03
2022-11-23T14:48:37.674Z,1.40
2022-11-23T14:51:27.198Z,1.35
2022-11-23T14:54:17.209Z,1.48
2022-11-23T14:57:06.469Z,1.30
2022-11-23T14:59:59.117Z,1.50
2022-11-23T15:02:46.236Z,1.43
2022-11-23T15:05:35.820Z,1.20
2022-11-23T15:08:28.738Z,1.40
2022-11-23T15:11:21.444Z,1.13
2022-11-23T15:14:27.003Z,1.07
2022-11-23T15:17:20.988Z,1.20
2022-11-23T15:20:13.271Z,1.43
2022-11-23T15:23:01.482Z,1.20
2022-11-23T15:25:53.353Z,1.07
2022-11-23T15:28:40.257Z,1.17
2022-11-23T15:31:35.194Z,0.90
2022-11-23T15:34:23.703Z,1.20
2022-11-23T15:37:12.222Z,1.40
2022-11-23T15:39:59.732Z,0.90
2022-11-23T15:42:51.030Z,1.13
2022-11-23T15:46:08.724Z,0.90
2022-11-23T15:48:57.024Z,1.47
2022-11-23T15:51:46.972Z,1.00
2022-11-23T15:54:38.411Z,1.13
2022-11-23T15:57:28.192Z,1.23
2022-11-23T16:00:25.888Z,1.23
2022-11-23T16:03:31.728Z,1.10
2022-11-23T16:06:36.475Z,1.30
2022-11-23T16:09:56.808Z,1.17
2022-11-23T16:12:50.472Z,1.27
2022-11-23T16:15:43.538Z,1.13
2022-11-23T16:18:31.809Z,1.23
2022-11-23T16:21:21.513Z,1.20
2022-11-23T16:30:06.503Z,1.00
2022-11-23T16:32:53.397Z,1.20
2022-11-23T16:35:40.404Z,1.20
2022-11-23T16:38:26.984Z,1.30
2022-11-23T16:41:13.543Z,1.20
2022-11-23T16:44:00.318Z,0.60
2022-11-23T16:46:49.234Z,1.40
2022-11-23T16:49:36.162Z,0.90
2022-11-23T16:52:24.032Z,0.97
2022-11-23T16:55:11.423Z,1.50
2022-11-23T16:57:58.702Z,1.00
2022-11-23T17:00:48.737Z,0.70
2022-11-23T17:03:41.131Z,0.80
2022-11-23T17:06:27.762Z,1.13
2022-11-23T17:09:14.847Z,0.90
2022-11-23T17:12:02.803Z,1.10
2022-11-23T17:14:51.208Z,1.10
2022-11-23T17:17:38.032Z,0.77
2022-11-23T17:20:26.126Z,1.00
2022-11-23T17:23:13.459Z,0.70
2022-11-23T17:26:00.156Z,1.00
2022-11-23T17:28:47.053Z,0.90
2022-11-23T17:31:34.415Z,1.00
2022-11-23T17:34:21.672Z,0.93
2022-11-23T17:37:20.110Z,1.30
2022-11-23T17:40:17.999Z,1.00
2022-11-23T17:43:04.999Z,0.80
2022-11-23T17:45:51.840Z,1.20
2022-11-23T17:48:38.469Z,0.40
2022-11-23T17:51:28.211Z,1.07
2022-11-23T17:54:16.111Z,1.00
2022-11-23T17:57:02.740Z,0.50
2022-11-23T17:59:49.979Z,0.50
2022-11-23T18:02:39.477Z,0.80
2022-11-23T18:05:26.274Z,0.93
2022-11-23T18:08:12.924Z,0.80
2022-11-23T18:11:01.250Z,0.50
2022-11-23T18:13:56.216Z,1.00
2022-11-23T18:16:43.834Z,0.97
2022-11-23T18:19:30.978Z,1.10
2022-11-23T18:22:17.747Z,0.90
2022-11-23T18:25:04.922Z,1.47
2022-11-23T18:27:54.307Z,1.10
2022-11-23T18:30:40.754Z,0.73
2022-11-23T18:33:27.456Z,1.23
2022-11-23T18:36:15.719Z,0.80
2022-11-23T18:39:02.669Z,1.30
2022-11-23T18:41:49.138Z,1.10
2022-11-23T18:44:37.541Z,1.30
2022-11-23T18:47:24.783Z,1.33
2022-11-23T18:50:11.543Z,1.50
2022-11-23T18:52:58.683Z,1.20
2022-11-23T18:55:45.453Z,1.17
2022-11-23T18:58:34.128Z,1.27
2022-11-23T19:01:24.446Z,1.30
2022-11-23T19:04:11.123Z,1.00
2022-11-23T19:06:58.093Z,0.80
2022-11-23T19:09:44.699Z,1.10
2022-11-23T19:12:31.357Z,1.37
2022-11-23T19:15:24.369Z,1.00
2022-11-23T19:18:12.892Z,1.10
2022-11-23T19:20:59.858Z,1.30
2022-11-23T19:23:51.194Z,0.97
2022-11-23T19:26:38.939Z,1.27
2022-11-23T19:29:26.593Z,1.27
2022-11-23T19:32:13.585Z,1.13
2022-11-23T19:35:01.567Z,1.37
2022-11-23T19:37:49.761Z,1.00
2022-11-23T19:40:36.429Z,1.10
2022-11-23T19:43:23.288Z,0.83
2022-11-23T19:46:14.022Z,1.00
2022-11-23T19:49:01.148Z,1.00
2022-11-23T19:51:52.257Z,1.07
2022-11-23T19:54:39.283Z,1.20
2022-11-23T19:57:26.483Z,1.30
2022-11-23T20:00:14.015Z,1.00
2022-11-23T20:03:00.760Z,1.07
2022-11-23T20:05:57.079Z,1.20
2022-11-23T20:08:45.977Z,1.30
2022-11-23T20:11:35.044Z,1.20
2022-11-23T20:14:22.041Z,1.03
2022-11-23T20:17:08.580Z,1.73
2022-11-23T20:19:55.514Z,1.30
2022-11-23T20:22:44.848Z,1.20
2022-11-23T20:25:35.873Z,1.20
2022-11-23T20:28:22.910Z,1.30
2022-11-23T20:31:20.337Z,1.20
2022-11-23T20:34:10.084Z,1.10
2022-11-23T20:37:00.410Z,1.70
2022-11-23T20:39:47.076Z,1.40
2022-11-23T20:42:35.767Z,1.13
2022-11-23T20:45:22.674Z,1.60
2022-11-23T20:48:09.540Z,1.50
2022-11-23T20:50:56.515Z,1.27
2022-11-23T20:53:43.471Z,1.20
2022-11-23T20:56:30.253Z,1.37
2022-11-23T20:59:19.666Z,1.47
2022-11-23T21:02:07.342Z,1.10
2022-11-23T21:04:54.815Z,1.50
2022-11-23T21:07:41.778Z,1.37
2022-11-23T21:11:01.159Z,1.90
2022-11-23T21:14:05.257Z,1.50
2022-11-23T21:16:56.366Z,1.67
2022-11-23T21:19:43.221Z,1.80
2022-11-23T21:22:29.665Z,1.70
2022-11-23T21:25:19.806Z,1.43
2022-11-23T21:28:06.794Z,1.60
2022-11-23T21:30:53.515Z,1.63
2022-11-23T21:33:42.635Z,2.00
2022-11-23T21:36:29.355Z,1.60
2022-11-23T21:39:17.603Z,1.93
2022-11-23T21:42:04.285Z,1.97
2022-11-23T21:44:51.321Z,1.60
2022-11-23T21:47:38.205Z,1.70
2022-11-23T21:50:29.553Z,1.60
2022-11-23T21:53:16.166Z,2.00
2022-11-23T21:56:04.966Z,1.60
2022-11-23T21:58:52.237Z,1.90
2022-11-23T22:01:41.022Z,1.27
2022-11-23T22:04:28.219Z,1.37
2022-11-23T22:07:16.886Z,1.40
2022-11-23T22:10:03.808Z,1.70
2022-11-23T22:12:50.888Z,1.33
2022-11-23T22:15:37.848Z,1.63
2022-11-23T22:18:24.788Z,1.60
2022-11-23T22:21:23.055Z,1.37
2022-11-23T22:24:15.344Z,1.80
2022-11-23T22:27:01.904Z,1.43
2022-11-23T22:29:48.689Z,1.57
2022-11-23T22:32:35.735Z,1.63
2022-11-23T22:35:22.231Z,1.50
2022-11-23T22:38:09.270Z,1.70
2022-11-23T22:40:57.502Z,1.87
2022-11-23T22:43:44.826Z,1.90
2022-11-23T22:46:31.711Z,1.60
2022-11-23T22:49:18.852Z,1.87
2022-11-23T22:52:05.803Z,1.40
2022-11-23T22:54:52.463Z,1.80
2022-11-23T22:57:40.898Z,1.63
2022-11-23T23:00:27.830Z,2.07
2022-11-23T23:03:15.064Z,1.80
2022-11-23T23:06:02.174Z,1.73
2022-11-23T23:08:54.287Z,1.57
2022-11-23T23:11:41.101Z,1.77
2022-11-23T23:14:29.363Z,2.20
2022-11-23T23:17:16.626Z,2.20
2022-11-23T23:20:03.853Z,1.80
2022-11-23T23:22:50.334Z,2.00
2022-11-23T23:25:37.271Z,1.50
2022-11-23T23:28:24.383Z,1.87
2022-11-23T23:31:16.753Z,2.30
2022-11-23T23:34:03.634Z,1.83
2022-11-23T23:36:50.726Z,1.93
2022-11-23T23:39:37.632Z,1.90
2022-11-23T23:42:24.906Z,1.80
2022-11-23T23:45:11.800Z,2.03
2022-11-23T23:48:00.357Z,2.10
2022-11-23T23:50:46.793Z,1.50
2022-11-23T23:53:34.224Z,1.80
2022-11-23T23:56:23.110Z,1.70
2022-11-23T23:59:09.801Z,1.67
